Time;durP1;ratioP1;P1;durP2;ratioP2;P2;SDS_P1;SDS_P2;PMS_P1;PMS_P2;Temp;Humidity;BMP_temperature;BMP_pressure;BME280_temperature;BME280_humidity;BME280_pressure;Samples;Min_cycle;Max_cycle;Signal;HPM_P1;HPM_P2
2022/11/28 00:16:45;;;;;;;100.35;59.40;;;;;;;1.71;100.00;100369.66;4953344;28;19913;-92
2022/11/28 02:19:34;;;;;;;99.18;61.78;;;;;;;0.68;100.00;100254.00;5071602;28;20157;-95
2022/11/28 02:23:30;;;;;;;96.30;60.08;;;;;;;0.62;100.00;100251.38;5032116;28;20041;-95
2022/11/28 02:30:51;;;;;;;98.80;62.53;;;;;;;0.55;100.00;100248.78;4993715;28;20529;-95
2022/11/28 02:37:47;;;;;;;94.68;58.33;;;;;;;0.46;100.00;100247.94;4916434;29;20552;-95
2022/11/28 02:55:20;;;;;;;102.60;62.38;;;;;;;0.31;100.00;100242.72;4841351;29;20044;-94
2022/11/28 03:08:50;;;;;;;96.35;58.15;;;;;;;0.43;100.00;100239.38;4826678;29;19920;-94
2022/11/28 03:12:20;;;;;;;111.80;68.20;;;;;;;0.53;100.00;100237.69;4822962;29;20406;-94
2022/11/28 04:08:17;;;;;;;120.40;64.40;;;;;;;0.83;100.00;100194.19;4976932;28;20494;-94
2022/11/28 04:21:37;;;;;;;135.68;72.32;;;;;;;0.72;100.00;100181.34;4957182;29;20094;-95
2022/11/28 04:25:05;;;;;;;124.90;71.65;;;;;;;0.73;100.00;100180.50;4899624;29;20592;-94
2022/11/28 04:28:47;;;;;;;118.65;68.25;;;;;;;0.72;100.00;100180.50;4862304;29;20382;-95
2022/11/28 05:08:41;;;;;;;135.13;72.80;;;;;;;0.54;100.00;100181.28;5076428;28;20448;-90
2022/11/28 05:11:27;;;;;;;131.52;69.38;;;;;;;0.48;100.00;100177.03;4973254;28;20042;-88
2022/11/28 05:13:53;;;;;;;130.77;68.70;;;;;;;0.55;100.00;100177.03;4957038;28;20382;-88
2022/11/28 05:16:19;;;;;;;141.07;78.20;;;;;;;0.53;100.00;100176.19;4956798;28;20134;-88
2022/11/28 05:18:44;;;;;;;126.63;67.35;;;;;;;0.50;100.00;100172.75;4957032;28;20129;-90
2022/11/28 05:21:10;;;;;;;151.25;78.13;;;;;;;0.54;100.00;100189.00;4975925;28;20042;-88
2022/11/28 05:23:41;;;;;;;148.52;81.32;;;;;;;0.52;100.00;100187.28;4976093;28;20018;-88
2022/11/28 05:26:12;;;;;;;148.07;77.68;;;;;;;0.43;100.00;100168.47;4975933;28;20038;-88
2022/11/28 05:28:38;;;;;;;155.88;78.75;;;;;;;0.52;100.00;100180.47;4976058;28;20041;-88
2022/11/28 05:31:04;;;;;;;144.13;76.75;;;;;;;0.49;100.00;100180.44;4976188;28;20038;-88
2022/11/28 05:33:31;;;;;;;139.68;71.78;;;;;;;0.50;100.00;100180.44;4975928;28;20035;-88
2022/11/28 05:36:02;;;;;;;123.20;67.63;;;;;;;0.48;100.00;100171.03;4976091;28;20124;-88
2022/11/28 05:38:27;;;;;;;134.45;74.13;;;;;;;0.45;100.00;100171.03;4976495;28;20037;-88
2022/11/28 05:40:53;;;;;;;131.27;72.38;;;;;;;0.51;100.00;100168.50;4978040;28;20030;-88
2022/11/28 05:43:18;;;;;;;161.98;76.95;;;;;;;0.44;100.00;100172.75;4992142;28;20034;-88
2022/11/28 05:45:43;;;;;;;172.13;77.72;;;;;;;0.46;100.00;100175.28;5002078;28;20030;-88
2022/11/28 05:48:09;;;;;;;145.25;78.28;;;;;;;0.40;100.00;100165.91;5014588;28;20045;-89
2022/11/28 05:50:38;;;;;;;166.88;78.97;;;;;;;0.38;100.00;100159.91;5031765;28;20508;-88
2022/11/28 05:53:03;;;;;;;139.48;71.15;;;;;;;0.43;100.00;100168.47;5014559;28;20025;-88
2022/11/28 05:55:29;;;;;;;170.23;82.45;;;;;;;0.42;100.00;100156.53;5014983;28;20346;-88
2022/11/28 05:57:55;;;;;;;139.40;72.97;;;;;;;0.48;100.00;100173.59;5031372;28;20045;-91
2022/11/28 06:00:21;;;;;;;156.38;75.60;;;;;;;0.50;100.00;100166.75;5020500;28;20059;-90
2022/11/28 06:02:46;;;;;;;166.80;77.25;;;;;;;0.50;100.00;100157.38;5034423;28;20111;-90
2022/11/28 06:05:12;;;;;;;139.13;68.45;;;;;;;0.51;100.00;100153.13;5034137;28;20470;-90
2022/11/28 06:07:37;;;;;;;145.75;73.65;;;;;;;0.55;100.00;100156.53;5056671;28;20063;-91
2022/11/28 06:10:03;;;;;;;164.82;74.05;;;;;;;0.50;100.00;100142.00;5075912;28;20126;-90
2022/11/28 06:12:28;;;;;;;177.27;80.25;;;;;;;0.60;100.00;100145.44;5075577;28;20024;-90
2022/11/28 06:14:54;;;;;;;140.27;69.57;;;;;;;0.57;100.00;100136.88;5075494;28;20072;-90
2022/11/28 06:17:19;;;;;;;164.45;77.88;;;;;;;0.56;100.00;100132.63;5075308;28;20034;-83
2022/11/28 06:19:44;;;;;;;174.68;79.07;;;;;;;0.59;100.00;100137.72;5092786;28;20553;-84
2022/11/28 06:22:10;;;;;;;152.68;74.95;;;;;;;0.62;100.00;100140.31;5093034;28;20016;-84
2022/11/28 06:24:35;;;;;;;136.07;72.57;;;;;;;0.67;100.00;100141.16;5093090;28;20056;-83
2022/11/28 06:27:00;;;;;;;186.93;79.22;;;;;;;0.65;100.00;100141.19;5093010;28;20028;-83
2022/11/28 06:29:26;;;;;;;135.27;72.10;;;;;;;0.65;100.00;100130.91;5092652;28;20027;-84
2022/11/28 06:31:51;;;;;;;150.68;72.93;;;;;;;0.64;100.00;100133.50;5050160;28;20032;-84
2022/11/28 06:34:16;;;;;;;158.13;72.60;;;;;;;0.64;100.00;100133.50;5049985;28;20115;-84
2022/11/28 06:36:43;;;;;;;140.43;66.15;;;;;;;0.56;100.00;100125.78;5050180;28;20037;-84
2022/11/28 06:39:12;;;;;;;135.93;67.85;;;;;;;0.56;100.00;100120.66;5049742;28;20086;-84
2022/11/28 06:41:37;;;;;;;145.77;69.88;;;;;;;0.64;100.00;100126.66;5050116;28;20408;-83
2022/11/28 06:44:03;;;;;;;133.98;66.30;;;;;;;0.65;100.00;100132.63;5050079;28;20033;-83
2022/11/28 06:46:28;;;;;;;143.45;69.65;;;;;;;0.63;100.00;100121.50;5049811;28;20029;-84
2022/11/28 06:48:53;;;;;;;136.13;70.78;;;;;;;0.69;100.00;100130.06;5033306;28;20053;-84
2022/11/28 06:51:19;;;;;;;121.38;62.08;;;;;;;0.63;100.00;100117.25;5049582;28;20083;-84
2022/11/28 06:53:45;;;;;;;152.15;74.85;;;;;;;0.67;100.00;100125.78;5050014;28;20447;-83
2022/11/28 06:56:14;;;;;;;125.97;63.20;;;;;;;0.64;100.00;100123.25;5049770;28;20075;-84
2022/11/28 06:58:40;;;;;;;157.13;72.88;;;;;;;0.74;100.00;100130.94;5049617;28;20041;-83
2022/11/28 07:01:10;;;;;;;145.75;71.78;;;;;;;0.61;100.00;100106.13;5049734;28;20053;-78
2022/11/28 07:03:37;;;;;;;143.30;74.85;;;;;;;0.74;100.00;100133.50;5084414;28;20046;-78
2022/11/28 07:06:04;;;;;;;137.77;69.28;;;;;;;0.74;100.00;100137.75;5092615;28;20020;-78
2022/11/28 07:08:30;;;;;;;141.10;66.72;;;;;;;0.78;100.00;100144.59;5092344;28;20023;-79
2022/11/28 07:10:57;;;;;;;145.98;78.25;;;;;;;0.75;100.00;100136.91;5092426;28;20085;-78
2022/11/28 07:13:23;;;;;;;134.73;68.47;;;;;;;0.81;100.00;100134.38;5092662;28;20158;-78
2022/11/28 07:15:50;;;;;;;136.10;71.63;;;;;;;0.76;100.00;100115.56;5092588;28;20028;-79
2022/11/28 07:18:15;;;;;;;140.13;69.00;;;;;;;0.84;100.00;100126.66;5091811;28;20028;-79
2022/11/28 07:20:41;;;;;;;135.20;68.05;;;;;;;0.91;100.00;100117.25;5092236;28;20024;-78
2022/11/28 07:23:06;;;;;;;150.50;73.32;;;;;;;0.94;100.00;100124.97;5092153;28;20020;-79
2022/11/28 07:25:32;;;;;;;138.98;66.93;;;;;;;0.96;100.00;100118.97;5091858;28;20526;-78
2022/11/28 07:28:00;;;;;;;133.77;68.28;;;;;;;0.95;100.00;100118.97;5092257;28;20098;-79
2022/11/28 07:30:25;;;;;;;127.75;67.32;;;;;;;0.99;100.00;100124.09;5091974;28;20075;-79
2022/11/28 07:32:51;;;;;;;142.95;71.28;;;;;;;1.02;100.00;100117.28;5091907;28;20024;-78
2022/11/28 07:35:16;;;;;;;124.00;66.25;;;;;;;1.06;100.00;100112.13;5091877;28;20406;-78
2022/11/28 07:37:42;;;;;;;132.98;67.20;;;;;;;1.07;100.00;100115.56;5091976;28;20020;-78
2022/11/28 07:40:07;;;;;;;127.00;67.90;;;;;;;1.04;100.00;100111.25;5092012;28;20020;-78
2022/11/28 07:42:32;;;;;;;138.20;71.57;;;;;;;0.99;100.00;100095.88;5091770;28;20355;-79
2022/11/28 07:44:58;;;;;;;148.25;79.70;;;;;;;1.04;100.00;100102.72;5092000;28;20443;-79
2022/11/28 07:47:24;;;;;;;141.25;76.20;;;;;;;1.09;100.00;100106.97;5091797;28;20028;-78
2022/11/28 07:49:49;;;;;;;149.70;77.95;;;;;;;1.12;100.00;100111.28;5091949;28;20055;-79
2022/11/28 07:52:14;;;;;;;135.95;71.18;;;;;;;1.12;100.00;100106.13;5091559;28;20080;-78
2022/11/28 07:54:40;;;;;;;138.32;73.60;;;;;;;1.06;100.00;100104.44;5073593;28;20035;-79
2022/11/28 07:57:05;;;;;;;144.10;75.63;;;;;;;1.02;100.00;100105.31;5092004;28;20475;-78
2022/11/28 07:59:31;;;;;;;145.43;78.97;;;;;;;1.02;100.00;100107.88;5073625;28;20509;-78
2022/11/28 08:01:56;;;;;;;137.48;72.38;;;;;;;0.95;100.00;100096.75;5091870;28;20035;-79
2022/11/28 08:04:21;;;;;;;129.57;73.18;;;;;;;1.09;100.00;100112.13;5091591;28;20202;-79
2022/11/28 08:06:47;;;;;;;127.82;69.03;;;;;;;1.00;100.00;100092.47;5091848;28;20105;-78
2022/11/28 08:09:12;;;;;;;122.40;65.55;;;;;;;1.05;100.00;100099.28;5091490;28;20043;-79
2022/11/28 08:11:38;;;;;;;114.43;67.18;;;;;;;1.11;100.00;100101.88;5091789;28;20077;-79
2022/11/28 08:14:04;;;;;;;111.45;64.18;;;;;;;1.07;100.00;100092.47;5081461;28;20031;-78
2022/11/28 08:16:31;;;;;;;127.20;68.70;;;;;;;1.14;100.00;100095.03;5076653;28;20021;-79
2022/11/28 08:19:00;;;;;;;128.23;70.97;;;;;;;1.14;100.00;100089.91;5080343;28;20020;-79
2022/11/28 08:21:30;;;;;;;114.30;68.05;;;;;;;1.24;100.00;100101.00;5071099;28;20475;-79
2022/11/28 08:23:58;;;;;;;118.63;70.65;;;;;;;1.21;100.00;100083.88;5077320;28;20027;-78
2022/11/28 08:26:25;;;;;;;117.32;67.05;;;;;;;1.22;100.00;100079.59;5083257;28;20032;-78
2022/11/28 08:28:52;;;;;;;133.90;75.45;;;;;;;1.32;100.00;100085.59;5071322;28;20341;-78
2022/11/28 08:31:21;;;;;;;117.47;68.57;;;;;;;1.32;100.00;100088.16;5071135;28;20353;-78
2022/11/28 08:33:48;;;;;;;124.43;75.28;;;;;;;1.36;100.00;100085.56;5071515;28;20031;-79
2022/11/28 08:36:15;;;;;;;111.40;65.50;;;;;;;1.34;100.00;100071.88;5071029;28;20055;-78
2022/11/28 08:38:42;;;;;;;118.53;70.70;;;;;;;1.35;100.00;100070.16;5071704;28;20353;-79
2022/11/28 08:41:13;;;;;;;108.75;65.47;;;;;;;1.41;100.00;100076.16;5071344;28;20107;-79
2022/11/28 08:43:39;;;;;;;117.43;71.43;;;;;;;1.46;100.00;100071.84;5072533;28;20028;-79
2022/11/28 08:46:12;;;;;;;105.13;63.95;;;;;;;1.48;100.00;100077.84;5074929;28;20126;-78
2022/11/28 08:48:38;;;;;;;98.22;62.80;;;;;;;1.47;100.00;100068.41;5056489;28;20023;-79
2022/11/28 08:51:03;;;;;;;93.25;59.55;;;;;;;1.52;100.00;100060.72;5074601;28;20024;-79
2022/11/28 08:53:29;;;;;;;104.05;64.15;;;;;;;1.56;100.00;100062.44;5074573;28;20070;-78
2022/11/28 08:55:55;;;;;;;104.60;65.95;;;;;;;1.65;100.00;100064.09;5074775;28;20566;-79
2022/11/28 08:58:20;;;;;;;102.47;63.88;;;;;;;1.65;100.00;100062.38;5074458;28;20029;-79
2022/11/28 09:00:45;;;;;;;95.85;60.20;;;;;;;1.72;100.00;100066.63;5084350;28;20036;-79
2022/11/28 09:03:16;;;;;;;104.53;65.95;;;;;;;1.74;100.00;100054.66;5094775;28;20112;-79
2022/11/28 09:05:44;;;;;;;84.85;52.42;;;;;;;1.77;100.00;100051.22;5094700;28;20110;-79
2022/11/28 09:08:09;;;;;;;83.45;55.80;;;;;;;1.90;100.00;100055.44;5094775;28;20028;-79
2022/11/28 09:10:36;;;;;;;98.22;62.03;;;;;;;1.93;100.00;100069.97;5094423;28;20028;-79
2022/11/28 09:13:02;;;;;;;82.68;53.30;;;;;;;1.91;100.00;100057.13;5094635;28;20016;-78
2022/11/28 09:15:28;;;;;;;81.82;52.10;;;;;;;2.06;100.00;100057.91;5094329;28;20499;-78
2022/11/28 09:17:53;;;;;;;88.32;58.10;;;;;;;2.08;100.00;100056.19;5094446;28;20013;-78
2022/11/28 09:20:20;;;;;;;81.57;53.47;;;;;;;2.02;100.00;100046.78;5094076;28;20048;-78
2022/11/28 09:22:46;;;;;;;80.47;51.28;;;;;;;2.04;100.00;100026.25;5094451;28;20035;-78
2022/11/28 09:25:12;;;;;;;80.38;51.83;;;;;;;2.14;100.00;100038.16;5094360;28;20107;-79
2022/11/28 09:27:37;;;;;;;81.68;48.67;;;;;;;2.22;100.00;100050.09;5094422;28;20054;-79
2022/11/28 09:30:03;;;;;;;79.35;51.63;;;;;;;2.18;100.00;100035.56;5094244;28;20047;-79
2022/11/28 09:32:29;;;;;;;80.93;53.75;;;;;;;2.27;100.00;100056.91;5093891;28;20024;-79
2022/11/28 09:34:54;;;;;;;72.93;48.50;;;;;;;2.24;100.00;100050.09;5094171;28;20028;-78
2022/11/28 09:37:19;;;;;;;82.60;52.15;;;;;;;2.30;100.00;100041.50;5094095;28;20020;-79
2022/11/28 09:39:45;;;;;;;75.55;49.47;;;;;;;2.23;100.00;100030.38;5076047;28;20024;-78
2022/11/28 09:42:38;;;;;;;68.00;46.38;;;;;;;2.33;100.00;100042.31;5094103;28;20020;-78
2022/11/28 09:45:15;;;;;;;75.70;47.65;;;;;;;2.36;100.00;100031.16;5093894;28;20118;-79
2022/11/28 09:47:46;;;;;;;79.95;50.95;;;;;;;2.35;100.00;100029.44;5094053;28;20047;-79
2022/11/28 09:50:19;;;;;;;;;;;;;;;2.42;100.00;100023.41;5094369;28;20024;-79
2022/11/28 09:52:55;;;;;;;72.93;48.05;;;;;;;2.37;100.00;100010.59;5093869;28;19908;-79
2022/11/28 09:55:26;;;;;;;73.30;47.80;;;;;;;2.47;100.00;100021.66;5093518;28;20020;-79
2022/11/28 09:57:53;;;;;;;76.68;47.88;;;;;;;2.39;100.00;100006.28;5093624;28;20039;-78
2022/11/28 10:00:29;;;;;;;82.55;51.03;;;;;;;2.50;100.00;100019.91;5093358;28;20472;-79
2022/11/28 10:03:24;;;;;;;72.97;44.60;;;;;;;2.38;100.00;99990.88;5093877;28;20061;-78
2022/11/28 10:06:24;;;;;;;77.97;50.65;;;;;;;2.48;100.00;100001.06;5093426;28;20345;-78
2022/11/28 10:09:14;;;;;;;79.75;51.03;;;;;;;2.45;100.00;100002.84;5093550;28;20459;-79
2022/11/28 10:12:09;;;;;;;78.20;52.37;;;;;;;2.52;100.00;99996.75;5093262;28;20020;-79
2022/11/28 10:14:43;;;;;;;81.53;54.10;;;;;;;2.62;100.00;100002.69;5093313;28;20028;-79
2022/11/28 10:17:14;;;;;;;78.40;48.97;;;;;;;2.71;100.00;100003.44;5093371;28;20016;-78
2022/11/28 10:19:49;;;;;;;70.85;47.35;;;;;;;2.91;100.00;99987.00;5093082;28;20077;-79
2022/11/28 10:22:23;;;;;;;85.25;55.13;;;;;;;2.93;100.00;99978.38;5093378;28;20024;-79
2022/11/28 10:24:54;;;;;;;77.15;49.17;;;;;;;2.89;100.00;99975.84;5093114;28;20031;-79
2022/11/28 10:27:22;;;;;;;;;;;;;;;2.81;100.00;99983.63;5093262;28;20101;-79
2022/11/28 10:29:55;;;;;;;76.55;46.47;;;;;;;2.71;100.00;99982.88;5093182;28;19910;-79
2022/11/28 10:32:29;;;;;;;79.75;48.80;;;;;;;2.60;100.00;99961.53;5092813;28;20095;-79
2022/11/28 10:35:04;;;;;;;78.72;51.33;;;;;;;2.59;100.00;99970.13;5092954;28;20347;-79
2022/11/28 10:37:31;;;;;;;76.32;48.00;;;;;;;2.58;100.00;99976.16;5092930;28;20028;-79
2022/11/28 10:40:23;;;;;;;72.35;47.47;;;;;;;2.57;100.00;99976.13;5092546;28;20095;-78
2022/11/28 10:43:05;;;;;;;67.40;45.00;;;;;;;2.48;100.00;99965.06;5092994;28;20122;-79
2022/11/28 10:45:55;;;;;;;82.88;53.75;;;;;;;2.46;100.00;99956.53;5092519;28;20027;-79
2022/11/28 10:48:38;;;;;;;74.32;47.25;;;;;;;2.56;100.00;99966.72;5092788;28;20545;-79
2022/11/28 10:51:22;;;;;;;75.32;49.20;;;;;;;2.60;100.00;99965.84;5092868;28;20137;-79
2022/11/28 10:54:09;;;;;;;73.85;48.03;;;;;;;2.63;100.00;99966.66;5092581;28;20028;-79
2022/11/28 10:56:53;;;;;;;78.45;50.38;;;;;;;2.68;100.00;99970.03;5092525;28;20116;-79
2022/11/28 10:59:30;;;;;;;78.10;51.55;;;;;;;2.70;100.00;99960.59;5092602;28;20023;-79
2022/11/28 11:01:56;;;;;;;77.82;52.53;;;;;;;2.69;100.00;99948.59;5092428;28;20073;-79
2022/11/28 11:04:27;;;;;;;82.95;53.90;;;;;;;2.75;100.00;99948.53;5092037;28;20042;-79
2022/11/28 11:07:08;;;;;;;80.22;51.47;;;;;;;2.80;100.00;99945.06;5091902;28;20414;-79
2022/11/28 11:09:34;;;;;;;92.40;55.38;;;;;;;2.84;100.00;99941.59;5092221;28;20481;-79
2022/11/28 11:11:59;;;;;;;90.75;54.67;;;;;;;2.82;100.00;99931.31;5092365;28;20027;-79
2022/11/28 11:14:51;;;;;;;88.53;57.17;;;;;;;2.93;100.00;99941.50;5092104;28;20028;-79
2022/11/28 11:17:42;;;;;;;81.97;53.22;;;;;;;2.96;100.00;99944.06;4990448;28;20038;-79
2022/11/28 11:20:38;;;;;;;80.13;53.53;;;;;;;2.99;100.00;99939.72;4913619;29;20028;-79
2022/11/28 11:23:18;;;;;;;76.43;51.30;;;;;;;2.92;100.00;99924.38;4875912;29;20044;-79
2022/11/28 11:25:53;;;;;;;79.13;54.80;;;;;;;2.98;100.00;99932.84;4875746;29;20036;-79
2022/11/28 11:28:26;;;;;;;88.20;59.35;;;;;;;2.95;100.00;99922.63;4875775;29;20061;-79
2022/11/28 11:30:59;;;;;;;80.10;55.83;;;;;;;3.03;100.00;99935.38;4876180;29;20150;-79
2022/11/28 11:33:32;;;;;;;70.95;48.20;;;;;;;2.93;100.00;99923.50;4875496;29;20413;-79
2022/11/28 11:35:59;;;;;;;74.05;49.22;;;;;;;2.90;100.00;99923.50;4875962;29;20044;-79
2022/11/28 11:38:27;;;;;;;72.25;46.92;;;;;;;2.98;100.00;99920.00;4875519;29;20081;-79
2022/11/28 11:40:52;;;;;;;77.88;49.83;;;;;;;2.92;100.00;99916.66;4875699;29;20037;-79
2022/11/28 11:43:35;;;;;;;63.17;43.63;;;;;;;2.98;100.00;99919.13;4875775;29;20044;-79
2022/11/28 11:46:06;;;;;;;60.83;41.25;;;;;;;2.99;100.00;99921.72;4875810;29;20090;-79
2022/11/28 11:48:38;;;;;;;71.60;47.67;;;;;;;2.92;100.00;99904.63;4875508;29;20128;-79
2022/11/28 11:51:04;;;;;;;70.63;47.28;;;;;;;2.94;100.00;99908.03;4875555;29;20423;-79
2022/11/28 11:53:30;;;;;;;72.72;49.78;;;;;;;2.94;100.00;99897.72;4894608;29;20494;-79
2022/11/28 11:56:00;;;;;;;71.75;46.60;;;;;;;3.02;100.00;99909.66;4955691;28;20023;-79
2022/11/28 11:58:33;;;;;;;83.25;55.75;;;;;;;2.90;100.00;99884.94;5015608;28;20018;-79
2022/11/28 12:01:00;;;;;;;64.88;43.97;;;;;;;2.93;100.00;99890.91;5091901;28;20043;-79
2022/11/28 12:03:32;;;;;;;73.50;46.85;;;;;;;2.97;100.00;99897.72;5091692;28;20020;-79
2022/11/28 12:06:10;;;;;;;67.40;44.22;;;;;;;3.00;100.00;99896.84;5091824;28;20487;-79
2022/11/28 12:08:46;;;;;;;65.47;42.25;;;;;;;2.99;100.00;99895.09;5091534;28;20459;-79
2022/11/28 12:11:22;;;;;;;59.45;40.92;;;;;;;3.02;100.00;99891.66;5091639;28;20055;-79
2022/11/28 12:13:49;;;;;;;60.95;40.83;;;;;;;2.97;100.00;99866.00;5073473;28;20362;-79
2022/11/28 12:16:47;;;;;;;53.53;35.05;;;;;;;3.07;100.00;99885.56;5091672;28;20024;-79
2022/11/28 12:19:31;;;;;;;51.63;36.03;;;;;;;3.09;100.00;99893.28;5031275;28;20550;-79
2022/11/28 12:22:28;;;;;;;52.17;33.65;;;;;;;3.03;100.00;99875.34;5032863;28;20033;-79
2022/11/28 12:25:03;;;;;;;53.10;35.22;;;;;;;3.04;100.00;99884.78;5032846;28;20029;-79
2022/11/28 12:27:50;;;;;;;57.60;36.38;;;;;;;3.04;100.00;99892.50;5032499;28;20412;-79
2022/11/28 12:30:23;;;;;;;55.13;33.92;;;;;;;3.04;100.00;99893.34;5032742;28;20033;-79
2022/11/28 12:33:16;;;;;;;51.17;34.28;;;;;;;2.99;100.00;99889.97;5032425;28;20068;-79
2022/11/28 12:35:48;;;;;;;55.90;36.40;;;;;;;2.91;100.00;99881.50;5032502;28;20029;-79
2022/11/28 12:38:54;;;;;;;57.83;36.50;;;;;;;2.96;100.00;99884.88;5032575;28;20081;-79
2022/11/28 12:41:40;;;;;;;57.05;35.00;;;;;;;2.86;100.00;99884.09;5032777;28;20026;-79
2022/11/28 12:44:17;;;;;;;50.00;33.10;;;;;;;2.95;100.00;99886.59;5032426;28;20047;-79
2022/11/28 12:47:10;;;;;;;54.35;33.72;;;;;;;2.90;100.00;99887.50;5032263;28;20028;-79
2022/11/28 12:49:44;;;;;;;53.30;34.35;;;;;;;2.74;100.00;99876.56;5032218;28;20208;-79
2022/11/28 12:52:21;;;;;;;62.08;37.42;;;;;;;2.80;100.00;99883.34;5032459;28;20029;-79
2022/11/28 12:55:05;;;;;;;50.70;32.05;;;;;;;2.80;100.00;99883.34;5032155;28;20151;-79
2022/11/28 12:57:32;;;;;;;50.78;33.05;;;;;;;2.78;100.00;99880.78;5093697;28;20055;-79
2022/11/28 13:00:03;;;;;;;47.28;32.08;;;;;;;2.65;100.00;99867.19;5094699;28;20059;-79
2022/11/28 13:03:12;;;;;;;48.72;33.30;;;;;;;2.73;100.00;99875.69;5094739;28;20020;-78
2022/11/28 13:05:59;;;;;;;50.22;33.08;;;;;;;2.69;100.00;99878.31;4992477;28;20034;-79
2022/11/28 13:08:45;;;;;;;53.05;35.38;;;;;;;2.72;100.00;99881.69;4992871;28;20055;-79
2022/11/28 13:11:37;;;;;;;58.05;34.10;;;;;;;2.77;100.00;99880.78;4992744;28;20090;-79
2022/11/28 13:14:05;;;;;;;54.28;32.75;;;;;;;2.73;100.00;99872.25;4976384;28;20034;-79
2022/11/28 13:17:11;;;;;;;54.20;36.90;;;;;;;2.71;100.00;99871.44;4992406;28;20117;-79
2022/11/28 13:19:37;;;;;;;55.42;34.78;;;;;;;2.71;100.00;99874.84;4915460;29;20064;-79
2022/11/28 13:22:46;;;;;;;59.85;36.90;;;;;;;2.70;100.00;99877.47;4915580;29;20032;-79
2022/11/28 13:25:44;;;;;;;58.95;35.83;;;;;;;2.66;100.00;99873.22;4878040;29;20468;-79
2022/11/28 13:28:27;;;;;;;54.72;33.72;;;;;;;2.58;100.00;99865.56;4822537;29;20530;-79
2022/11/28 13:31:01;;;;;;;63.70;39.95;;;;;;;2.58;100.00;99870.72;4821972;29;20080;-79
2022/11/28 13:33:50;;;;;;;61.70;35.42;;;;;;;2.55;100.00;99867.31;4822391;29;20045;-79
2022/11/28 13:36:40;;;;;;;53.45;33.13;;;;;;;2.53;100.00;99864.78;4822475;29;20099;-78
2022/11/28 13:39:28;;;;;;;57.13;34.83;;;;;;;2.57;100.00;99871.59;4822424;29;20078;-79
2022/11/28 13:42:03;;;;;;;55.30;33.45;;;;;;;2.51;100.00;99866.50;4820471;29;20034;-79
2022/11/28 13:45:01;;;;;;;49.72;32.58;;;;;;;2.53;100.00;99869.03;4859043;29;20409;-79
2022/11/28 13:47:31;;;;;;;55.67;36.03;;;;;;;2.47;100.00;99857.13;4859071;29;20053;-79
2022/11/28 13:50:27;;;;;;;51.08;32.28;;;;;;;2.55;100.00;99867.31;4858709;29;20049;-79
2022/11/28 13:53:20;;;;;;;55.15;35.05;;;;;;;2.54;100.00;99868.19;4858584;29;20057;-79
2022/11/28 13:55:50;;;;;;;53.72;33.15;;;;;;;2.52;100.00;99869.91;4821882;29;20146;-79
2022/11/28 13:58:19;;;;;;;60.88;34.83;;;;;;;2.40;100.00;99853.78;4824955;29;20080;-79
2022/11/28 14:01:09;;;;;;;56.58;32.10;;;;;;;2.42;100.00;99870.03;4839880;29;20061;-79
2022/11/28 14:03:57;;;;;;;49.80;31.90;;;;;;;2.42;100.00;99875.16;4845314;29;20115;-79
2022/11/28 14:06:47;;;;;;;50.60;31.88;;;;;;;2.40;100.00;99874.34;4877195;29;20062;-79
2022/11/28 14:09:15;;;;;;;91.88;54.15;;;;;;;2.39;100.00;99879.47;4877291;29;20056;-78
2022/11/28 14:11:48;;;;;;;110.40;62.08;;;;;;;2.37;100.00;99882.06;4876655;29;20045;-79
2022/11/28 14:14:32;;;;;;;75.80;49.70;;;;;;;2.36;100.00;99882.06;4877075;29;20041;-79
2022/11/28 14:17:10;;;;;;;69.50;48.10;;;;;;;2.28;100.00;99868.47;4876760;29;20505;-79
2022/11/28 14:20:13;;;;;;;116.45;81.50;;;;;;;2.33;100.00;99879.53;4920465;29;20040;-79
2022/11/28 14:22:47;;;;;;;57.00;38.10;;;;;;;2.38;100.00;99875.22;4933375;29;20031;-79
2022/11/28 14:25:24;;;;;;;64.97;37.50;;;;;;;2.39;100.00;99876.91;4933303;29;20511;-79
2022/11/28 14:27:56;;;;;;;60.22;38.28;;;;;;;2.36;100.00;99871.78;4933428;29;20497;-79
2022/11/28 14:30:35;;;;;;;51.20;32.40;;;;;;;2.29;100.00;99865.88;4933434;29;20063;-79
2022/11/28 14:33:14;;;;;;;47.88;29.63;;;;;;;2.31;100.00;99869.25;4991954;28;20045;-79
2022/11/28 14:35:51;;;;;;;58.38;34.60;;;;;;;2.33;100.00;99875.25;5030307;28;20032;-79
2022/11/28 14:38:25;;;;;;;49.28;30.73;;;;;;;2.31;100.00;99870.97;5030378;28;20051;-79
2022/11/28 14:40:54;;;;;;;51.65;33.10;;;;;;;2.28;100.00;99879.59;5029415;28;20030;-79
2022/11/28 14:43:22;;;;;;;55.35;33.40;;;;;;;2.29;100.00;99881.28;5048917;28;20472;-79
2022/11/28 14:45:49;;;;;;;68.32;39.75;;;;;;;2.28;100.00;99871.03;5072448;28;20051;-79
2022/11/28 14:48:28;;;;;;;62.00;38.33;;;;;;;2.21;100.00;99863.38;5072359;28;20459;-79
2022/11/28 14:50:54;;;;;;;72.68;44.83;;;;;;;2.19;100.00;99875.41;5054186;28;20020;-79
2022/11/28 14:53:35;;;;;;;67.13;41.95;;;;;;;2.19;100.00;99882.22;5072359;28;20021;-79
2022/11/28 14:56:22;;;;;;;70.80;46.20;;;;;;;2.09;100.00;99866.03;5072309;28;20100;-79
2022/11/28 14:58:49;;;;;;;58.78;39.08;;;;;;;2.12;100.00;99871.16;5072212;28;20026;-79
2022/11/28 15:01:25;;;;;;;75.10;51.20;;;;;;;2.12;100.00;99876.31;5085893;28;20032;-79
2022/11/28 15:03:52;;;;;;;85.88;57.58;;;;;;;2.15;100.00;99880.53;5092166;28;20055;-79
2022/11/28 15:06:27;;;;;;;79.00;53.20;;;;;;;2.12;100.00;99875.47;5092380;28;20464;-79
2022/11/28 15:09:26;;;;;;;64.75;42.60;;;;;;;2.12;100.00;99875.47;5092287;28;20018;-79
2022/11/28 15:12:02;;;;;;;78.32;45.90;;;;;;;2.09;100.00;99873.75;5092221;28;20052;-78
2022/11/28 15:14:31;;;;;;;74.82;48.95;;;;;;;2.13;100.00;99882.28;5092748;28;20138;-79
2022/11/28 15:17:02;;;;;;;66.78;42.80;;;;;;;2.17;100.00;99878.84;5092252;28;20128;-79
2022/11/28 15:19:36;;;;;;;65.95;37.88;;;;;;;2.12;100.00;99871.16;5092352;28;20024;-79
2022/11/28 15:22:01;;;;;;;59.85;35.03;;;;;;;2.12;100.00;99867.75;5092100;28;20091;-79
2022/11/28 15:24:33;;;;;;;79.50;48.95;;;;;;;2.16;100.00;99883.13;5092634;28;20126;-79
2022/11/28 15:27:05;;;;;;;84.05;52.53;;;;;;;2.18;100.00;99881.38;5091940;28;20032;-79
2022/11/28 15:29:30;;;;;;;68.90;42.13;;;;;;;2.16;100.00;99884.84;5092135;28;20398;-79
2022/11/28 15:31:57;;;;;;;58.25;35.15;;;;;;;2.14;100.00;99886.56;5091908;28;20020;-79
2022/11/28 15:34:29;;;;;;;61.60;35.05;;;;;;;2.16;100.00;99890.81;5091878;28;20455;-79
2022/11/28 15:36:58;;;;;;;53.78;31.77;;;;;;;2.13;100.00;99879.72;5091789;28;20061;-79
2022/11/28 15:39:38;;;;;;;68.50;39.05;;;;;;;2.07;100.00;99872.94;5091940;28;20336;-79
2022/11/28 15:42:06;;;;;;;72.45;44.78;;;;;;;2.08;100.00;99871.22;5092331;28;20065;-79
2022/11/28 15:44:36;;;;;;;68.82;39.88;;;;;;;2.17;100.00;99882.25;5092045;28;20028;-79
2022/11/28 15:47:03;;;;;;;51.97;32.67;;;;;;;2.23;100.00;99879.63;5073929;28;20441;-79
2022/11/28 15:49:34;;;;;;;60.72;34.42;;;;;;;2.22;100.00;99866.78;5089550;28;20063;-78
2022/11/28 15:52:02;;;;;;;49.53;30.63;;;;;;;2.41;100.00;99890.63;5072292;28;20025;-79
2022/11/28 15:54:32;;;;;;;58.10;34.15;;;;;;;2.48;100.00;99890.50;5075765;28;20020;-78
2022/11/28 15:56:59;;;;;;;52.15;33.55;;;;;;;2.55;100.00;99891.31;5075552;28;20048;-78
2022/11/28 15:59:24;;;;;;;111.70;62.10;;;;;;;2.54;100.00;99889.63;5075646;28;20376;-78
2022/11/28 16:01:52;;;;;;;102.47;65.43;;;;;;;2.66;100.00;99886.06;5075326;28;20069;-78
2022/11/28 16:04:19;;;;;;;96.13;62.88;;;;;;;2.68;100.00;99887.75;5075954;28;20043;-79
2022/11/28 16:06:50;;;;;;;122.32;81.72;;;;;;;2.69;100.00;99874.00;5075512;28;20036;-79
2022/11/28 16:09:18;;;;;;;68.63;41.63;;;;;;;2.82;100.00;99892.72;5075711;28;20020;-79
2022/11/28 16:11:51;;;;;;;71.43;51.92;;;;;;;2.88;100.00;99892.69;5075348;28;20024;-79
2022/11/28 16:14:26;;;;;;;55.17;37.20;;;;;;;2.83;100.00;99881.59;5075473;28;20078;-79